sensor_id;sensor_type;location;lat;lon;timestamp;temperature;humidity
74513;DHT22;62992;52.052;8.550;2022-09-01T00:01:52;13.20;99.90
74513;DHT22;62992;52.052;8.550;2022-09-01T00:04:21;13.20;99.90
74513;DHT22;62992;52.052;8.550;2022-09-01T00:06:50;13.10;99.90
74513;DHT22;62992;52.052;8.550;2022-09-01T00:09:20;13.10;99.90
74513;DHT22;62992;52.052;8.550;2022-09-01T00:11:49;13.00;99.90
74513;DHT22;62992;52.052;8.550;2022-09-01T00:14:17;13.00;99.90
74513;DHT22;62992;52.052;8.550;2022-09-01T00:16:43;12.90;99.90
74513;DHT22;62992;52.052;8.550;2022-09-01T00:19:09;12.90;99.90
74513;DHT22;62992;52.052;8.550;2022-09-01T00:21:38;12.90;99.90
74513;DHT22;62992;52.052;8.550;2022-09-01T00:24:06;12.80;99.90
74513;DHT22;62992;52.052;8.550;2022-09-01T00:26:32;12.80;99.90
74513;DHT22;62992;52.052;8.550;2022-09-01T00:28:58;12.80;99.90
74513;DHT22;62992;52.052;8.550;2022-09-01T00:31:24;12.80;99.90
74513;DHT22;62992;52.052;8.550;2022-09-01T00:33:50;12.70;99.90
74513;DHT22;62992;52.052;8.550;2022-09-01T00:36:18;12.80;99.90
74513;DHT22;62992;52.052;8.550;2022-09-01T00:38:43;12.70;99.90
74513;DHT22;62992;52.052;8.550;2022-09-01T00:41:09;12.70;99.90
74513;DHT22;62992;52.052;8.550;2022-09-01T00:43:45;12.70;99.90
74513;DHT22;62992;52.052;8.550;2022-09-01T00:46:18;12.60;99.90
74513;DHT22;62992;52.052;8.550;2022-09-01T00:48:45;12.60;99.90
74513;DHT22;62992;52.052;8.550;2022-09-01T00:51:12;12.50;99.90
74513;DHT22;62992;52.052;8.550;2022-09-01T00:53:40;12.50;99.90
74513;DHT22;62992;52.052;8.550;2022-09-01T00:56:06;12.50;99.90
74513;DHT22;62992;52.052;8.550;2022-09-01T00:58:33;12.50;99.90
74513;DHT22;62992;52.052;8.550;2022-09-01T01:01:00;12.40;99.90
74513;DHT22;62992;52.052;8.550;2022-09-01T01:03:27;12.50;99.90
74513;DHT22;62992;52.052;8.550;2022-09-01T01:05:56;12.50;99.90
74513;DHT22;62992;52.052;8.550;2022-09-01T01:08:26;12.50;99.90
74513;DHT22;62992;52.052;8.550;2022-09-01T01:11:10;12.40;99.90
74513;DHT22;62992;52.052;8.550;2022-09-01T01:13:55;12.40;99.90
74513;DHT22;62992;52.052;8.550;2022-09-01T01:16:23;12.30;99.90
74513;DHT22;62992;52.052;8.550;2022-09-01T01:18:49;12.30;99.90
74513;DHT22;62992;52.052;8.550;2022-09-01T01:21:21;12.20;99.90
74513;DHT22;62992;52.052;8.550;2022-09-01T01:26:53;12.10;99.90
74513;DHT22;62992;52.052;8.550;2022-09-01T01:29:21;12.10;99.90
74513;DHT22;62992;52.052;8.550;2022-09-01T01:31:47;12.10;99.90
74513;DHT22;62992;52.052;8.550;2022-09-01T01:34:16;12.10;99.90
74513;DHT22;62992;52.052;8.550;2022-09-01T01:36:43;12.10;99.90
74513;DHT22;62992;52.052;8.550;2022-09-01T01:39:29;12.00;99.90
74513;DHT22;62992;52.052;8.550;2022-09-01T01:41:56;11.90;99.90
74513;DHT22;62992;52.052;8.550;2022-09-01T01:44:24;12.00;99.90
74513;DHT22;62992;52.052;8.550;2022-09-01T01:46:53;11.90;99.90
74513;DHT22;62992;52.052;8.550;2022-09-01T01:49:21;11.90;99.90
74513;DHT22;62992;52.052;8.550;2022-09-01T01:51:49;11.90;99.90
74513;DHT22;62992;52.052;8.550;2022-09-01T01:54:21;11.80;99.90
74513;DHT22;62992;52.052;8.550;2022-09-01T01:56:47;11.90;99.90
74513;DHT22;62992;52.052;8.550;2022-09-01T01:59:13;11.80;99.90
74513;DHT22;62992;52.052;8.550;2022-09-01T02:01:42;11.70;99.90
74513;DHT22;62992;52.052;8.550;2022-09-01T02:04:13;11.70;99.90
74513;DHT22;62992;52.052;8.550;2022-09-01T02:06:42;11.60;99.90
74513;DHT22;62992;52.052;8.550;2022-09-01T02:09:11;11.60;99.90
74513;DHT22;62992;52.052;8.550;2022-09-01T02:11:38;11.50;99.90
74513;DHT22;62992;52.052;8.550;2022-09-01T02:14:06;11.50;99.90
74513;DHT22;62992;52.052;8.550;2022-09-01T02:16:32;11.60;99.90
74513;DHT22;62992;52.052;8.550;2022-09-01T02:19:00;11.60;99.90
74513;DHT22;62992;52.052;8.550;2022-09-01T02:21:27;11.50;99.90
74513;DHT22;62992;52.052;8.550;2022-09-01T02:23:59;11.60;99.90
74513;DHT22;62992;52.052;8.550;2022-09-01T02:26:34;11.50;99.90
74513;DHT22;62992;52.052;8.550;2022-09-01T02:29:04;11.50;99.90
74513;DHT22;62992;52.052;8.550;2022-09-01T02:31:34;11.40;99.90
74513;DHT22;62992;52.052;8.550;2022-09-01T02:34:04;11.40;99.90
74513;DHT22;62992;52.052;8.550;2022-09-01T02:36:31;11.40;99.90
74513;DHT22;62992;52.052;8.550;2022-09-01T02:38:59;11.40;99.90
74513;DHT22;62992;52.052;8.550;2022-09-01T02:41:25;11.30;99.90
74513;DHT22;62992;52.052;8.550;2022-09-01T02:43:56;11.30;99.90
74513;DHT22;62992;52.052;8.550;2022-09-01T02:46:25;11.30;99.90
74513;DHT22;62992;52.052;8.550;2022-09-01T02:48:51;11.30;99.90
74513;DHT22;62992;52.052;8.550;2022-09-01T02:51:19;11.30;99.90
74513;DHT22;62992;52.052;8.550;2022-09-01T02:53:46;11.20;99.90
74513;DHT22;62992;52.052;8.550;2022-09-01T02:56:19;11.20;99.90
74513;DHT22;62992;52.052;8.550;2022-09-01T02:58:47;11.20;99.90
74513;DHT22;62992;52.052;8.550;2022-09-01T03:01:40;11.20;99.90
74513;DHT22;62992;52.052;8.550;2022-09-01T03:04:07;11.20;99.90
74513;DHT22;62992;52.052;8.550;2022-09-01T03:06:35;11.20;99.90
74513;DHT22;62992;52.052;8.550;2022-09-01T03:09:04;11.10;99.90
74513;DHT22;62992;52.052;8.550;2022-09-01T03:11:36;11.10;99.90
74513;DHT22;62992;52.052;8.550;2022-09-01T03:14:03;11.10;99.90
74513;DHT22;62992;52.052;8.550;2022-09-01T03:16:29;11.20;99.90
74513;DHT22;62992;52.052;8.550;2022-09-01T03:18:55;11.20;99.90
74513;DHT22;62992;52.052;8.550;2022-09-01T03:21:22;11.20;99.90
74513;DHT22;62992;52.052;8.550;2022-09-01T03:23:49;11.20;99.90
74513;DHT22;62992;52.052;8.550;2022-09-01T03:26:16;11.10;99.90
74513;DHT22;62992;52.052;8.550;2022-09-01T03:28:44;11.10;99.90
74513;DHT22;62992;52.052;8.550;2022-09-01T03:31:10;11.00;99.90
74513;DHT22;62992;52.052;8.550;2022-09-01T03:33:36;11.00;99.90
74513;DHT22;62992;52.052;8.550;2022-09-01T03:36:02;10.90;99.90
74513;DHT22;62992;52.052;8.550;2022-09-01T03:38:28;10.90;99.90
74513;DHT22;62992;52.052;8.550;2022-09-01T03:40:57;10.90;99.90
74513;DHT22;62992;52.052;8.550;2022-09-01T03:43:24;10.90;99.90
74513;DHT22;62992;52.052;8.550;2022-09-01T03:45:53;10.90;99.90
74513;DHT22;62992;52.052;8.550;2022-09-01T03:48:20;10.90;99.90
74513;DHT22;62992;52.052;8.550;2022-09-01T03:50:46;10.90;99.90
74513;DHT22;62992;52.052;8.550;2022-09-01T03:53:18;10.90;99.90
74513;DHT22;62992;52.052;8.550;2022-09-01T03:55:46;10.80;99.90
74513;DHT22;62992;52.052;8.550;2022-09-01T03:58:13;10.70;99.90
74513;DHT22;62992;52.052;8.550;2022-09-01T04:00:45;10.70;99.90
74513;DHT22;62992;52.052;8.550;2022-09-01T04:03:12;10.80;99.90
74513;DHT22;62992;52.052;8.550;2022-09-01T04:05:42;10.80;99.90
74513;DHT22;62992;52.052;8.550;2022-09-01T04:08:10;10.70;99.90
74513;DHT22;62992;52.052;8.550;2022-09-01T04:10:50;10.60;99.90
74513;DHT22;62992;52.052;8.550;2022-09-01T04:13:22;10.60;99.90
74513;DHT22;62992;52.052;8.550;2022-09-01T04:15:48;10.70;99.90
74513;DHT22;62992;52.052;8.550;2022-09-01T04:18:15;10.70;99.90
74513;DHT22;62992;52.052;8.550;2022-09-01T04:20:47;10.70;99.90
74513;DHT22;62992;52.052;8.550;2022-09-01T04:23:25;10.50;99.90
74513;DHT22;62992;52.052;8.550;2022-09-01T04:25:59;10.40;99.90
74513;DHT22;62992;52.052;8.550;2022-09-01T04:28:43;10.60;99.90
74513;DHT22;62992;52.052;8.550;2022-09-01T04:31:16;10.60;99.90
74513;DHT22;62992;52.052;8.550;2022-09-01T04:33:44;10.60;99.90
74513;DHT22;62992;52.052;8.550;2022-09-01T04:36:24;10.50;99.90
74513;DHT22;62992;52.052;8.550;2022-09-01T04:38:53;10.50;99.90
74513;DHT22;62992;52.052;8.550;2022-09-01T04:41:24;10.50;99.90
74513;DHT22;62992;52.052;8.550;2022-09-01T04:43:52;10.50;99.90
74513;DHT22;62992;52.052;8.550;2022-09-01T04:46:21;10.50;99.90
74513;DHT22;62992;52.052;8.550;2022-09-01T04:48:47;10.40;99.90
74513;DHT22;62992;52.052;8.550;2022-09-01T04:51:13;10.40;99.90
74513;DHT22;62992;52.052;8.550;2022-09-01T04:53:40;10.40;99.90
74513;DHT22;62992;52.052;8.550;2022-09-01T04:56:14;10.40;99.90
74513;DHT22;62992;52.052;8.550;2022-09-01T04:58:39;10.40;99.90
74513;DHT22;62992;52.052;8.550;2022-09-01T05:01:19;10.40;99.90
74513;DHT22;62992;52.052;8.550;2022-09-01T05:03:47;10.50;99.90
74513;DHT22;62992;52.052;8.550;2022-09-01T05:06:21;10.60;99.90
74513;DHT22;62992;52.052;8.550;2022-09-01T05:08:47;10.50;99.90
74513;DHT22;62992;52.052;8.550;2022-09-01T05:11:14;10.50;99.90
74513;DHT22;62992;52.052;8.550;2022-09-01T05:13:46;10.60;99.90
74513;DHT22;62992;52.052;8.550;2022-09-01T05:16:15;10.60;99.90
74513;DHT22;62992;52.052;8.550;2022-09-01T05:18:42;10.60;99.90
74513;DHT22;62992;52.052;8.550;2022-09-01T05:21:17;10.60;99.90
74513;DHT22;62992;52.052;8.550;2022-09-01T05:23:46;10.70;99.90
74513;DHT22;62992;52.052;8.550;2022-09-01T05:26:14;10.70;99.90
74513;DHT22;62992;52.052;8.550;2022-09-01T05:28:47;10.70;99.90
74513;DHT22;62992;52.052;8.550;2022-09-01T05:31:14;10.80;99.90
74513;DHT22;62992;52.052;8.550;2022-09-01T05:33:44;10.80;99.90
74513;DHT22;62992;52.052;8.550;2022-09-01T05:36:11;10.80;99.90
74513;DHT22;62992;52.052;8.550;2022-09-01T05:38:38;10.80;99.90
74513;DHT22;62992;52.052;8.550;2022-09-01T05:41:07;10.90;99.90
74513;DHT22;62992;52.052;8.550;2022-09-01T05:43:34;10.90;99.90
74513;DHT22;62992;52.052;8.550;2022-09-01T05:46:01;11.00;99.90
74513;DHT22;62992;52.052;8.550;2022-09-01T05:48:28;11.00;99.90
74513;DHT22;62992;52.052;8.550;2022-09-01T05:50:56;11.10;99.90
74513;DHT22;62992;52.052;8.550;2022-09-01T05:53:27;11.10;99.90
74513;DHT22;62992;52.052;8.550;2022-09-01T05:55:55;11.20;99.90
74513;DHT22;62992;52.052;8.550;2022-09-01T05:58:24;11.30;99.90
74513;DHT22;62992;52.052;8.550;2022-09-01T06:00:51;11.30;99.90
74513;DHT22;62992;52.052;8.550;2022-09-01T06:03:21;11.40;99.90
74513;DHT22;62992;52.052;8.550;2022-09-01T06:05:48;11.50;99.90
74513;DHT22;62992;52.052;8.550;2022-09-01T06:08:23;11.90;99.90
74513;DHT22;62992;52.052;8.550;2022-09-01T06:10:50;13.20;99.90
74513;DHT22;62992;52.052;8.550;2022-09-01T06:13:17;14.70;99.90
74513;DHT22;62992;52.052;8.550;2022-09-01T06:15:50;14.00;99.90
74513;DHT22;62992;52.052;8.550;2022-09-01T06:18:19;13.40;99.90
74513;DHT22;62992;52.052;8.550;2022-09-01T06:20:46;13.00;99.90
74513;DHT22;62992;52.052;8.550;2022-09-01T06:23:14;12.80;99.90
74513;DHT22;62992;52.052;8.550;2022-09-01T06:25:44;12.70;99.90
74513;DHT22;62992;52.052;8.550;2022-09-01T06:28:17;12.60;99.90
74513;DHT22;62992;52.052;8.550;2022-09-01T06:30:45;12.60;99.90
74513;DHT22;62992;52.052;8.550;2022-09-01T06:33:12;12.70;99.90
74513;DHT22;62992;52.052;8.550;2022-09-01T06:35:39;12.70;99.90
74513;DHT22;62992;52.052;8.550;2022-09-01T06:38:10;13.00;99.90
74513;DHT22;62992;52.052;8.550;2022-09-01T06:40:37;13.00;99.90
74513;DHT22;62992;52.052;8.550;2022-09-01T06:43:05;13.10;99.90
74513;DHT22;62992;52.052;8.550;2022-09-01T06:45:40;13.20;99.90
74513;DHT22;62992;52.052;8.550;2022-09-01T06:48:06;13.20;99.90
74513;DHT22;62992;52.052;8.550;2022-09-01T06:50:32;13.50;99.90
74513;DHT22;62992;52.052;8.550;2022-09-01T06:52:58;13.60;99.90
74513;DHT22;62992;52.052;8.550;2022-09-01T06:55:38;13.60;99.90
74513;DHT22;62992;52.052;8.550;2022-09-01T06:58:08;13.70;99.90
74513;DHT22;62992;52.052;8.550;2022-09-01T07:00:37;13.80;99.90
74513;DHT22;62992;52.052;8.550;2022-09-01T07:03:12;14.00;99.90
74513;DHT22;62992;52.052;8.550;2022-09-01T07:05:43;14.20;99.90
74513;DHT22;62992;52.052;8.550;2022-09-01T07:08:12;14.40;99.90
74513;DHT22;62992;52.052;8.550;2022-09-01T07:10:44;14.50;99.90
74513;DHT22;62992;52.052;8.550;2022-09-01T07:13:12;14.70;99.90
74513;DHT22;62992;52.052;8.550;2022-09-01T07:15:43;15.50;99.90
74513;DHT22;62992;52.052;8.550;2022-09-01T07:18:09;18.80;99.90
74513;DHT22;62992;52.052;8.550;2022-09-01T07:20:40;21.50;99.90
74513;DHT22;62992;52.052;8.550;2022-09-01T07:23:07;23.40;99.40
74513;DHT22;62992;52.052;8.550;2022-09-01T07:25:36;24.90;95.40
74513;DHT22;62992;52.052;8.550;2022-09-01T07:28:04;25.70;93.10
74513;DHT22;62992;52.052;8.550;2022-09-01T07:30:30;26.00;91.70
74513;DHT22;62992;52.052;8.550;2022-09-01T07:32:56;26.30;90.70
74513;DHT22;62992;52.052;8.550;2022-09-01T07:35:22;26.50;90.10
74513;DHT22;62992;52.052;8.550;2022-09-01T07:37:48;26.00;89.90
74513;DHT22;62992;52.052;8.550;2022-09-01T07:40:17;26.50;89.30
74513;DHT22;62992;52.052;8.550;2022-09-01T07:42:44;26.70;89.50
74513;DHT22;62992;52.052;8.550;2022-09-01T07:45:13;26.70;89.30
74513;DHT22;62992;52.052;8.550;2022-09-01T07:47:40;26.40;87.60
74513;DHT22;62992;52.052;8.550;2022-09-01T07:50:08;27.30;86.70
74513;DHT22;62992;52.052;8.550;2022-09-01T07:52:35;27.90;85.20
74513;DHT22;62992;52.052;8.550;2022-09-01T07:55:07;27.70;84.20
74513;DHT22;62992;52.052;8.550;2022-09-01T07:57:35;27.20;86.00
74513;DHT22;62992;52.052;8.550;2022-09-01T08:00:04;28.00;84.10
74513;DHT22;62992;52.052;8.550;2022-09-01T08:02:30;27.80;84.40
74513;DHT22;62992;52.052;8.550;2022-09-01T08:04:57;28.40;82.50
74513;DHT22;62992;52.052;8.550;2022-09-01T08:07:23;27.80;82.20
74513;DHT22;62992;52.052;8.550;2022-09-01T08:09:49;28.40;83.60
74513;DHT22;62992;52.052;8.550;2022-09-01T08:12:15;28.00;81.10
74513;DHT22;62992;52.052;8.550;2022-09-01T08:14:41;27.90;83.80
74513;DHT22;62992;52.052;8.550;2022-09-01T08:17:07;28.70;82.70
74513;DHT22;62992;52.052;8.550;2022-09-01T08:19:32;27.90;81.70
74513;DHT22;62992;52.052;8.550;2022-09-01T08:21:58;27.00;83.30
74513;DHT22;62992;52.052;8.550;2022-09-01T08:24:24;26.10;84.70
74513;DHT22;62992;52.052;8.550;2022-09-01T08:26:49;25.80;88.10
74513;DHT22;62992;52.052;8.550;2022-09-01T08:29:15;25.30;90.20
74513;DHT22;62992;52.052;8.550;2022-09-01T08:31:40;25.10;90.00
74513;DHT22;62992;52.052;8.550;2022-09-01T08:34:06;25.00;90.40
74513;DHT22;62992;52.052;8.550;2022-09-01T08:36:33;24.50;90.50
74513;DHT22;62992;52.052;8.550;2022-09-01T08:38:59;24.10;92.40
74513;DHT22;62992;52.052;8.550;2022-09-01T08:41:51;23.80;92.00
74513;DHT22;62992;52.052;8.550;2022-09-01T08:47:00;24.30;91.80
74513;DHT22;62992;52.052;8.550;2022-09-01T08:49:28;24.30;91.30
74513;DHT22;62992;52.052;8.550;2022-09-01T08:54:49;24.50;92.70
74513;DHT22;62992;52.052;8.550;2022-09-01T08:57:23;24.30;91.80
74513;DHT22;62992;52.052;8.550;2022-09-01T08:59:50;24.70;92.10
74513;DHT22;62992;52.052;8.550;2022-09-01T09:05:07;24.10;91.20
74513;DHT22;62992;52.052;8.550;2022-09-01T09:08:03;23.70;92.50
74513;DHT22;62992;52.052;8.550;2022-09-01T09:10:59;23.50;93.50
74513;DHT22;62992;52.052;8.550;2022-09-01T09:16:22;23.60;93.60
74513;DHT22;62992;52.052;8.550;2022-09-01T09:21:32;22.50;94.00
74513;DHT22;62992;52.052;8.550;2022-09-01T09:26:57;23.40;93.80
74513;DHT22;62992;52.052;8.550;2022-09-01T09:29:26;23.20;93.70
74513;DHT22;62992;52.052;8.550;2022-09-01T09:32:05;23.70;92.80
74513;DHT22;62992;52.052;8.550;2022-09-01T09:34:39;23.70;92.60
74513;DHT22;62992;52.052;8.550;2022-09-01T09:37:29;24.70;92.10
74513;DHT22;62992;52.052;8.550;2022-09-01T09:45:27;24.90;91.00
74513;DHT22;62992;52.052;8.550;2022-09-01T09:47:56;25.40;89.40
74513;DHT22;62992;52.052;8.550;2022-09-01T09:50:38;25.20;88.90
74513;DHT22;62992;52.052;8.550;2022-09-01T09:55:35;23.80;89.80
74513;DHT22;62992;52.052;8.550;2022-09-01T09:58:09;25.00;90.10
74513;DHT22;62992;52.052;8.550;2022-09-01T10:00:36;24.70;90.10
74513;DHT22;62992;52.052;8.550;2022-09-01T10:03:07;24.90;90.20
74513;DHT22;62992;52.052;8.550;2022-09-01T10:05:38;25.50;90.30
74513;DHT22;62992;52.052;8.550;2022-09-01T10:08:11;24.40;90.50
74513;DHT22;62992;52.052;8.550;2022-09-01T10:10:47;24.40;87.50
74513;DHT22;62992;52.052;8.550;2022-09-01T10:13:17;24.70;86.80
74513;DHT22;62992;52.052;8.550;2022-09-01T10:15:47;24.70;86.80
74513;DHT22;62992;52.052;8.550;2022-09-01T10:18:18;24.50;87.50
74513;DHT22;62992;52.052;8.550;2022-09-01T10:20:51;23.90;90.30
74513;DHT22;62992;52.052;8.550;2022-09-01T10:23:18;24.50;90.00
74513;DHT22;62992;52.052;8.550;2022-09-01T10:25:44;24.10;89.80
74513;DHT22;62992;52.052;8.550;2022-09-01T10:28:17;25.00;88.80
74513;DHT22;62992;52.052;8.550;2022-09-01T10:30:46;25.80;86.80
74513;DHT22;62992;52.052;8.550;2022-09-01T10:33:16;26.70;83.90
74513;DHT22;62992;52.052;8.550;2022-09-01T10:35:45;26.00;78.30
74513;DHT22;62992;52.052;8.550;2022-09-01T10:38:19;25.70;78.80
74513;DHT22;62992;52.052;8.550;2022-09-01T10:40:47;25.80;79.00
74513;DHT22;62992;52.052;8.550;2022-09-01T10:45:48;26.80;80.90
74513;DHT22;62992;52.052;8.550;2022-09-01T10:53:43;25.70;83.00
74513;DHT22;62992;52.052;8.550;2022-09-01T10:56:37;25.90;75.20
74513;DHT22;62992;52.052;8.550;2022-09-01T11:06:57;25.80;74.30
74513;DHT22;62992;52.052;8.550;2022-09-01T11:09:35;26.30;76.20
74513;DHT22;62992;52.052;8.550;2022-09-01T11:15:51;26.00;74.70
74513;DHT22;62992;52.052;8.550;2022-09-01T11:20:30;25.60;73.10
74513;DHT22;62992;52.052;8.550;2022-09-01T11:22:58;25.80;74.50
74513;DHT22;62992;52.052;8.550;2022-09-01T11:30:51;25.00;77.50
74513;DHT22;62992;52.052;8.550;2022-09-01T11:34:38;24.50;77.10
74513;DHT22;62992;52.052;8.550;2022-09-01T11:36:36;25.40;76.70
74513;DHT22;62992;52.052;8.550;2022-09-01T11:42:01;25.10;75.40
74513;DHT22;62992;52.052;8.550;2022-09-01T11:44:33;23.60;79.80
74513;DHT22;62992;52.052;8.550;2022-09-01T11:47:09;22.80;83.80
74513;DHT22;62992;52.052;8.550;2022-09-01T11:49:39;23.30;82.70
74513;DHT22;62992;52.052;8.550;2022-09-01T11:52:05;23.40;81.40
74513;DHT22;62992;52.052;8.550;2022-09-01T11:54:40;24.50;79.30
74513;DHT22;62992;52.052;8.550;2022-09-01T11:57:21;24.90;77.00
74513;DHT22;62992;52.052;8.550;2022-09-01T11:59:48;24.50;78.20
74513;DHT22;62992;52.052;8.550;2022-09-01T12:02:34;23.40;80.50
74513;DHT22;62992;52.052;8.550;2022-09-01T12:05:02;24.10;82.20
74513;DHT22;62992;52.052;8.550;2022-09-01T12:10:00;25.10;79.00
74513;DHT22;62992;52.052;8.550;2022-09-01T12:15:03;25.10;77.70
74513;DHT22;62992;52.052;8.550;2022-09-01T12:17:29;24.50;79.80
74513;DHT22;62992;52.052;8.550;2022-09-01T12:19:55;24.30;80.00
74513;DHT22;62992;52.052;8.550;2022-09-01T12:22:22;24.40;79.20
74513;DHT22;62992;52.052;8.550;2022-09-01T12:24:52;24.70;80.60
74513;DHT22;62992;52.052;8.550;2022-09-01T12:27:20;24.40;78.20
74513;DHT22;62992;52.052;8.550;2022-09-01T12:29:48;24.10;77.90
74513;DHT22;62992;52.052;8.550;2022-09-01T12:32:14;24.10;79.60
74513;DHT22;62992;52.052;8.550;2022-09-01T12:34:42;24.00;79.10
74513;DHT22;62992;52.052;8.550;2022-09-01T12:39:42;23.90;82.90
74513;DHT22;62992;52.052;8.550;2022-09-01T12:45:05;24.00;80.70
74513;DHT22;62992;52.052;8.550;2022-09-01T12:49:58;23.90;79.80
74513;DHT22;62992;52.052;8.550;2022-09-01T12:52:28;23.70;80.60
74513;DHT22;62992;52.052;8.550;2022-09-01T12:55:08;23.40;81.70
74513;DHT22;62992;52.052;8.550;2022-09-01T12:57:45;23.90;82.30
74513;DHT22;62992;52.052;8.550;2022-09-01T13:03:15;23.60;82.30
74513;DHT22;62992;52.052;8.550;2022-09-01T13:05:50;23.60;82.10
74513;DHT22;62992;52.052;8.550;2022-09-01T13:08:18;23.70;83.60
74513;DHT22;62992;52.052;8.550;2022-09-01T13:10:49;23.20;84.20
74513;DHT22;62992;52.052;8.550;2022-09-01T13:13:16;23.40;82.20
74513;DHT22;62992;52.052;8.550;2022-09-01T13:15:48;23.10;83.40
74513;DHT22;62992;52.052;8.550;2022-09-01T13:18:16;23.30;84.10
74513;DHT22;62992;52.052;8.550;2022-09-01T13:20:42;23.20;83.70
74513;DHT22;62992;52.052;8.550;2022-09-01T13:23:08;23.10;83.10
74513;DHT22;62992;52.052;8.550;2022-09-01T13:25:34;22.80;83.70
74513;DHT22;62992;52.052;8.550;2022-09-01T13:28:00;22.90;84.20
74513;DHT22;62992;52.052;8.550;2022-09-01T13:30:27;22.90;83.90
74513;DHT22;62992;52.052;8.550;2022-09-01T13:32:55;23.10;84.90
74513;DHT22;62992;52.052;8.550;2022-09-01T13:35:21;23.10;83.90
74513;DHT22;62992;52.052;8.550;2022-09-01T13:37:48;22.80;83.50
74513;DHT22;62992;52.052;8.550;2022-09-01T13:40:15;23.10;84.40
74513;DHT22;62992;52.052;8.550;2022-09-01T13:42:42;23.10;83.10
74513;DHT22;62992;52.052;8.550;2022-09-01T13:45:09;23.00;83.00
74513;DHT22;62992;52.052;8.550;2022-09-01T13:47:40;23.10;84.90
74513;DHT22;62992;52.052;8.550;2022-09-01T13:50:07;23.30;83.40
74513;DHT22;62992;52.052;8.550;2022-09-01T13:52:33;23.20;82.60
74513;DHT22;62992;52.052;8.550;2022-09-01T13:54:59;23.30;83.80
74513;DHT22;62992;52.052;8.550;2022-09-01T13:57:26;23.20;81.80
74513;DHT22;62992;52.052;8.550;2022-09-01T13:59:51;23.00;82.10
74513;DHT22;62992;52.052;8.550;2022-09-01T14:02:17;23.00;84.10
74513;DHT22;62992;52.052;8.550;2022-09-01T14:04:43;23.10;83.70
74513;DHT22;62992;52.052;8.550;2022-09-01T14:07:08;23.00;82.50
74513;DHT22;62992;52.052;8.550;2022-09-01T14:09:34;23.00;82.80
74513;DHT22;62992;52.052;8.550;2022-09-01T14:12:00;23.00;83.20
74513;DHT22;62992;52.052;8.550;2022-09-01T14:14:25;23.10;82.40
74513;DHT22;62992;52.052;8.550;2022-09-01T14:16:51;23.00;82.90
74513;DHT22;62992;52.052;8.550;2022-09-01T14:19:17;23.20;83.70
74513;DHT22;62992;52.052;8.550;2022-09-01T14:21:43;23.20;83.30
74513;DHT22;62992;52.052;8.550;2022-09-01T14:24:09;23.20;82.70
74513;DHT22;62992;52.052;8.550;2022-09-01T14:26:34;23.20;82.00
74513;DHT22;62992;52.052;8.550;2022-09-01T14:29:00;23.10;82.00
74513;DHT22;62992;52.052;8.550;2022-09-01T14:31:27;23.10;81.40
74513;DHT22;62992;52.052;8.550;2022-09-01T14:33:53;23.00;81.40
74513;DHT22;62992;52.052;8.550;2022-09-01T14:36:24;23.10;82.20
74513;DHT22;62992;52.052;8.550;2022-09-01T14:38:51;23.10;82.10
74513;DHT22;62992;52.052;8.550;2022-09-01T14:41:18;22.90;81.20
74513;DHT22;62992;52.052;8.550;2022-09-01T14:43:46;23.00;81.60
74513;DHT22;62992;52.052;8.550;2022-09-01T14:46:12;23.00;81.30
74513;DHT22;62992;52.052;8.550;2022-09-01T14:48:39;22.90;82.10
74513;DHT22;62992;52.052;8.550;2022-09-01T14:51:06;22.90;81.60
74513;DHT22;62992;52.052;8.550;2022-09-01T14:53:32;22.80;81.40
74513;DHT22;62992;52.052;8.550;2022-09-01T14:55:59;22.90;82.30
74513;DHT22;62992;52.052;8.550;2022-09-01T14:58:26;22.90;82.50
74513;DHT22;62992;52.052;8.550;2022-09-01T15:00:55;22.90;81.70
74513;DHT22;62992;52.052;8.550;2022-09-01T15:03:22;22.70;81.90
74513;DHT22;62992;52.052;8.550;2022-09-01T15:05:48;22.70;82.50
74513;DHT22;62992;52.052;8.550;2022-09-01T15:08:14;22.70;83.10
74513;DHT22;62992;52.052;8.550;2022-09-01T15:10:40;22.70;82.70
74513;DHT22;62992;52.052;8.550;2022-09-01T15:13:06;22.70;82.70
74513;DHT22;62992;52.052;8.550;2022-09-01T15:15:33;22.60;82.20
74513;DHT22;62992;52.052;8.550;2022-09-01T15:17:59;22.60;82.60
74513;DHT22;62992;52.052;8.550;2022-09-01T15:20:26;22.60;82.20
74513;DHT22;62992;52.052;8.550;2022-09-01T15:23:13;22.60;82.20
74513;DHT22;62992;52.052;8.550;2022-09-01T15:25:39;22.70;82.80
74513;DHT22;62992;52.052;8.550;2022-09-01T15:28:05;22.70;82.60
74513;DHT22;62992;52.052;8.550;2022-09-01T15:30:31;22.70;83.10
74513;DHT22;62992;52.052;8.550;2022-09-01T15:32:57;22.70;82.50
74513;DHT22;62992;52.052;8.550;2022-09-01T15:35:23;22.80;82.20
74513;DHT22;62992;52.052;8.550;2022-09-01T15:37:50;22.70;82.60
74513;DHT22;62992;52.052;8.550;2022-09-01T15:40:16;22.60;82.00
74513;DHT22;62992;52.052;8.550;2022-09-01T15:42:43;22.50;82.90
74513;DHT22;62992;52.052;8.550;2022-09-01T15:45:15;22.40;82.50
74513;DHT22;62992;52.052;8.550;2022-09-01T15:47:41;22.40;83.40
74513;DHT22;62992;52.052;8.550;2022-09-01T15:50:09;22.40;83.40
74513;DHT22;62992;52.052;8.550;2022-09-01T15:52:57;22.60;83.90
74513;DHT22;62992;52.052;8.550;2022-09-01T15:55:29;22.40;83.80
74513;DHT22;62992;52.052;8.550;2022-09-01T15:57:55;22.30;84.10
74513;DHT22;62992;52.052;8.550;2022-09-01T16:00:23;22.30;83.70
74513;DHT22;62992;52.052;8.550;2022-09-01T16:02:49;22.40;84.40
74513;DHT22;62992;52.052;8.550;2022-09-01T16:05:15;22.40;83.40
74513;DHT22;62992;52.052;8.550;2022-09-01T16:07:42;22.30;83.30
74513;DHT22;62992;52.052;8.550;2022-09-01T16:10:09;22.30;83.50
74513;DHT22;62992;52.052;8.550;2022-09-01T16:12:43;22.30;83.40
74513;DHT22;62992;52.052;8.550;2022-09-01T16:15:13;22.20;83.00
74513;DHT22;62992;52.052;8.550;2022-09-01T16:20:21;22.20;83.70
74513;DHT22;62992;52.052;8.550;2022-09-01T16:23:16;22.20;84.00
74513;DHT22;62992;52.052;8.550;2022-09-01T16:25:43;22.10;83.40
74513;DHT22;62992;52.052;8.550;2022-09-01T16:28:31;22.10;83.70
74513;DHT22;62992;52.052;8.550;2022-09-01T16:31:10;22.20;83.00
74513;DHT22;62992;52.052;8.550;2022-09-01T16:33:37;22.00;85.20
74513;DHT22;62992;52.052;8.550;2022-09-01T16:39:01;22.00;83.30
74513;DHT22;62992;52.052;8.550;2022-09-01T16:41:40;22.00;83.40
74513;DHT22;62992;52.052;8.550;2022-09-01T16:47:14;21.90;83.10
74513;DHT22;62992;52.052;8.550;2022-09-01T16:49:57;21.90;83.40
74513;DHT22;62992;52.052;8.550;2022-09-01T16:52:35;21.90;83.00
74513;DHT22;62992;52.052;8.550;2022-09-01T17:00:21;21.70;83.20
74513;DHT22;62992;52.052;8.550;2022-09-01T17:05:50;21.70;84.70
74513;DHT22;62992;52.052;8.550;2022-09-01T17:08:24;21.60;83.40
74513;DHT22;62992;52.052;8.550;2022-09-01T17:10:57;21.60;83.50
74513;DHT22;62992;52.052;8.550;2022-09-01T17:13:33;21.50;84.30
74513;DHT22;62992;52.052;8.550;2022-09-01T17:18:44;21.50;84.40